deformed-offering

Current conditions - KSJC (San Jose International)


Coded METAR: 2017/07/27 15:53 KSJC 271553Z 00000KT 4SM HZ FEW008 19/15 A3000 RMK AO2 SLP159 T01940150

Weather Report

Report issued: Thu 27th Jul at 08:53 PDT

Wind: calm 0 knots (0 mph, 0 kph, Force 0)
Visibility: 4 statute miles
Weather: haze
Cloud: a few clouds at 800 feet
Temperature: 66F / 19C
Dewpoint: 59F / 15C
Humidity: 78%
Pressure: 30.00 inches of mercury

Current conditions - KNUQ (Moffett NAS)


Coded METAR: 2017/07/27 15:56 KNUQ 271556Z 02003KT 6SM HZ FEW012 19/16 A3001 RMK AO2 SLP165 T01890156

Weather Report

Report issued: Thu 27th Jul at 08:56 PDT

Wind: light air from North-Northeast (020 degrees) at 3 knots (3 mph, 6 kph, Force 1)
Visibility: 6 statute miles
Weather: haze
Cloud: a few clouds at 1200 feet
Temperature: 66F / 19C
Dewpoint: 61F / 16C
Humidity: 83%
Pressure: 30.01 inches of mercury

Current conditions - KRHV (Reid-Hillview Airport - San Jose)


Coded METAR: 2017/07/27 15:55 KRHV 271555Z 00000KT 10SM SKC 20/14 A3003

Weather Report

Report issued: Thu 27th Jul at 08:55 PDT

Wind: calm 0 knots (0 mph, 0 kph, Force 0)
Visibility: 10 statute miles
Cloud: Sky clear
Temperature: 68F / 20C
Dewpoint: 57F / 14C
Humidity: 68%
Pressure: 30.03 inches of mercury
Pressure: 30.01 inches of mercury

Current conditions - KPAO (Palo Alto Airport)


Coded METAR: 2017/07/27 16:17 KPAO 271617Z 00000KT 7SM SCT010 18/16 A3001

Weather Report

Report issued: Thu 27th Jul at 09:17 PDT

Wind: calm 0 knots (0 mph, 0 kph, Force 0)
Visibility: 7 statute miles
Cloud: scattered at 1000 feet
Temperature: 64F / 18C
Dewpoint: 61F / 16C
Humidity: 88%
Pressure: 30.01 inches of mercury
Pressure: 30.01 inches of mercury

 

deformed-offering